Terminal Aerodrome Forecast
Issued by NWS

Home | Current Version | Previous Version | Graphics & Text | Print | Product List | Glossary On
Versions: 1 2 3 4 5 6 7 8 9 10 11 12 13
000
FTUS43 KICT 171100
TAFHUT
TAF
KHUT 171129Z 1712/1812 34009KT P6SM SKC
     FM171400 35014KT P6SM FEW300
     FM180000 36006KT P6SM SKC=

USA.gov is the U.S. government's official web portal to all federal, state and local government web resources and services.